Terminal Aerodrome Forecast
Issued by NWS Blacksburg, VA

Home | Current Version | Previous Version | Text Only | Print | Product List | Glossary On
Versions: 1 2 3 4 5 6 7 8 9 10 11 12 13 14 15 16 17 18 19 20 21 22 23 24 25 26
000
FTUS41 KRNK 302335
TAFLYH
TAF
KLYH 302335Z 3100/3124 00000KT P6SM SCT250
     FM311000 00000KT 6SM HZ SCT250
     FM311400 21005KT P6SM SCT050 SCT250
     FM312200 20004KT P6SM SCT060 BKN250=

USA.gov is the U.S. government's official web portal to all federal, state and local government web resources and services.